sensor_id;sensor_type;location;lat;lon;timestamp;temperature;humidity
14901;DHT22;7542;49.078;9.194;2023-04-03T00:00:29;24.20;49.40
14901;DHT22;7542;49.078;9.194;2023-04-03T00:01:32;24.20;49.40
14901;DHT22;7542;49.078;9.194;2023-04-03T00:02:34;24.20;49.40
14901;DHT22;7542;49.078;9.194;2023-04-03T00:03:36;24.10;49.40
14901;DHT22;7542;49.078;9.194;2023-04-03T00:04:38;24.10;49.40
14901;DHT22;7542;49.078;9.194;2023-04-03T00:05:40;24.10;49.40
14901;DHT22;7542;49.078;9.194;2023-04-03T00:06:42;24.10;49.40
14901;DHT22;7542;49.078;9.194;2023-04-03T00:07:44;24.20;49.40
14901;DHT22;7542;49.078;9.194;2023-04-03T00:08:47;24.10;49.40
14901;DHT22;7542;49.078;9.194;2023-04-03T00:09:49;24.10;49.40
14901;DHT22;7542;49.078;9.194;2023-04-03T00:10:51;24.10;49.40
14901;DHT22;7542;49.078;9.194;2023-04-03T00:11:53;24.10;49.40
14901;DHT22;7542;49.078;9.194;2023-04-03T00:12:55;24.10;49.40
14901;DHT22;7542;49.078;9.194;2023-04-03T00:13:57;24.10;49.40
14901;DHT22;7542;49.078;9.194;2023-04-03T00:14:58;24.10;49.40
14901;DHT22;7542;49.078;9.194;2023-04-03T00:16:01;24.00;49.30
14901;DHT22;7542;49.078;9.194;2023-04-03T00:17:04;24.00;49.30
14901;DHT22;7542;49.078;9.194;2023-04-03T00:18:07;24.00;49.30
14901;DHT22;7542;49.078;9.194;2023-04-03T00:19:09;24.00;49.40
14901;DHT22;7542;49.078;9.194;2023-04-03T00:20:13;24.00;49.40
14901;DHT22;7542;49.078;9.194;2023-04-03T00:21:15;24.00;49.30
14901;DHT22;7542;49.078;9.194;2023-04-03T00:22:17;24.00;49.40
14901;DHT22;7542;49.078;9.194;2023-04-03T00:23:18;24.00;49.40
14901;DHT22;7542;49.078;9.194;2023-04-03T00:24:20;23.90;49.40
14901;DHT22;7542;49.078;9.194;2023-04-03T00:25:22;24.10;49.50
14901;DHT22;7542;49.078;9.194;2023-04-03T00:26:24;24.00;49.40
14901;DHT22;7542;49.078;9.194;2023-04-03T00:27:26;23.90;49.40
14901;DHT22;7542;49.078;9.194;2023-04-03T00:28:28;23.90;49.40
14901;DHT22;7542;49.078;9.194;2023-04-03T00:29:29;23.90;49.40
14901;DHT22;7542;49.078;9.194;2023-04-03T00:30:32;23.90;49.40
14901;DHT22;7542;49.078;9.194;2023-04-03T00:31:34;23.90;49.40
14901;DHT22;7542;49.078;9.194;2023-04-03T00:32:36;23.90;49.40
14901;DHT22;7542;49.078;9.194;2023-04-03T00:33:38;23.90;49.40
14901;DHT22;7542;49.078;9.194;2023-04-03T00:34:40;23.90;49.40
14901;DHT22;7542;49.078;9.194;2023-04-03T00:35:42;23.90;49.40
14901;DHT22;7542;49.078;9.194;2023-04-03T00:36:44;23.90;49.50
14901;DHT22;7542;49.078;9.194;2023-04-03T00:37:46;23.90;49.40
14901;DHT22;7542;49.078;9.194;2023-04-03T00:38:49;23.90;49.40
14901;DHT22;7542;49.078;9.194;2023-04-03T00:39:50;23.90;49.40
14901;DHT22;7542;49.078;9.194;2023-04-03T00:40:52;23.90;49.40
14901;DHT22;7542;49.078;9.194;2023-04-03T00:41:54;23.80;49.30
14901;DHT22;7542;49.078;9.194;2023-04-03T00:42:58;23.90;49.40
14901;DHT22;7542;49.078;9.194;2023-04-03T00:44:00;23.90;49.40
14901;DHT22;7542;49.078;9.194;2023-04-03T00:46:04;23.80;49.40
14901;DHT22;7542;49.078;9.194;2023-04-03T00:47:08;23.80;49.40
14901;DHT22;7542;49.078;9.194;2023-04-03T00:48:26;23.80;49.40
14901;DHT22;7542;49.078;9.194;2023-04-03T00:49:29;23.80;49.40
14901;DHT22;7542;49.078;9.194;2023-04-03T00:50:36;23.90;49.50
14901;DHT22;7542;49.078;9.194;2023-04-03T00:51:40;23.80;49.40
14901;DHT22;7542;49.078;9.194;2023-04-03T00:52:42;23.90;49.50
14901;DHT22;7542;49.078;9.194;2023-04-03T00:53:50;23.80;49.40
14901;DHT22;7542;49.078;9.194;2023-04-03T00:55:04;23.80;49.40
14901;DHT22;7542;49.078;9.194;2023-04-03T00:56:11;23.80;49.40
14901;DHT22;7542;49.078;9.194;2023-04-03T00:57:16;23.80;49.30
14901;DHT22;7542;49.078;9.194;2023-04-03T00:58:20;23.80;49.40
14901;DHT22;7542;49.078;9.194;2023-04-03T00:59:32;23.70;49.30
14901;DHT22;7542;49.078;9.194;2023-04-03T01:00:39;23.80;49.40
14901;DHT22;7542;49.078;9.194;2023-04-03T01:01:46;23.80;49.40
14901;DHT22;7542;49.078;9.194;2023-04-03T01:02:51;23.70;49.40
14901;DHT22;7542;49.078;9.194;2023-04-03T01:03:54;23.70;49.40
14901;DHT22;7542;49.078;9.194;2023-04-03T01:04:56;23.70;49.40
14901;DHT22;7542;49.078;9.194;2023-04-03T01:05:58;23.70;49.40
14901;DHT22;7542;49.078;9.194;2023-04-03T01:07:24;23.70;49.40
14901;DHT22;7542;49.078;9.194;2023-04-03T01:08:30;23.70;49.40
14901;DHT22;7542;49.078;9.194;2023-04-03T01:09:33;23.70;49.40
14901;DHT22;7542;49.078;9.194;2023-04-03T01:10:36;23.70;49.30
14901;DHT22;7542;49.078;9.194;2023-04-03T01:11:38;23.70;49.40
14901;DHT22;7542;49.078;9.194;2023-04-03T01:12:43;23.70;49.30
14901;DHT22;7542;49.078;9.194;2023-04-03T01:13:48;23.70;49.30
14901;DHT22;7542;49.078;9.194;2023-04-03T01:14:56;23.70;49.40
14901;DHT22;7542;49.078;9.194;2023-04-03T01:16:02;23.70;49.40
14901;DHT22;7542;49.078;9.194;2023-04-03T01:18:48;23.70;49.40
14901;DHT22;7542;49.078;9.194;2023-04-03T01:20:02;23.60;49.30
14901;DHT22;7542;49.078;9.194;2023-04-03T01:22:50;23.70;49.40
14901;DHT22;7542;49.078;9.194;2023-04-03T01:24:36;23.60;49.30
14901;DHT22;7542;49.078;9.194;2023-04-03T01:25:46;23.60;49.30
14901;DHT22;7542;49.078;9.194;2023-04-03T01:26:50;22.90;49.00
14901;DHT22;7542;49.078;9.194;2023-04-03T01:27:52;23.60;49.30
14901;DHT22;7542;49.078;9.194;2023-04-03T01:28:55;23.60;49.30
14901;DHT22;7542;49.078;9.194;2023-04-03T01:29:57;23.60;49.30
14901;DHT22;7542;49.078;9.194;2023-04-03T01:32:32;23.60;49.30
14901;DHT22;7542;49.078;9.194;2023-04-03T01:33:35;23.60;49.40
14901;DHT22;7542;49.078;9.194;2023-04-03T01:34:37;23.60;49.30
14901;DHT22;7542;49.078;9.194;2023-04-03T01:35:39;23.60;49.30
14901;DHT22;7542;49.078;9.194;2023-04-03T01:36:41;23.60;49.30
14901;DHT22;7542;49.078;9.194;2023-04-03T01:37:43;23.60;49.30
14901;DHT22;7542;49.078;9.194;2023-04-03T01:38:45;23.60;49.30
14901;DHT22;7542;49.078;9.194;2023-04-03T01:39:47;23.60;49.30
14901;DHT22;7542;49.078;9.194;2023-04-03T01:40:49;23.60;49.30
14901;DHT22;7542;49.078;9.194;2023-04-03T01:41:50;23.60;49.30
14901;DHT22;7542;49.078;9.194;2023-04-03T01:42:53;23.60;49.30
14901;DHT22;7542;49.078;9.194;2023-04-03T01:43:55;23.60;49.30
14901;DHT22;7542;49.078;9.194;2023-04-03T01:44:57;23.40;49.30
14901;DHT22;7542;49.078;9.194;2023-04-03T01:45:58;23.50;49.30
14901;DHT22;7542;49.078;9.194;2023-04-03T01:47:00;23.50;49.30
14901;DHT22;7542;49.078;9.194;2023-04-03T01:48:03;23.50;49.30
14901;DHT22;7542;49.078;9.194;2023-04-03T01:49:05;23.60;49.30
14901;DHT22;7542;49.078;9.194;2023-04-03T01:50:07;23.60;49.20
14901;DHT22;7542;49.078;9.194;2023-04-03T01:51:10;23.60;49.20
14901;DHT22;7542;49.078;9.194;2023-04-03T01:52:12;23.50;49.20
14901;DHT22;7542;49.078;9.194;2023-04-03T01:53:14;23.60;49.20
14901;DHT22;7542;49.078;9.194;2023-04-03T01:54:16;23.60;49.20
14901;DHT22;7542;49.078;9.194;2023-04-03T01:55:18;23.60;49.20
14901;DHT22;7542;49.078;9.194;2023-04-03T01:56:20;23.50;49.20
14901;DHT22;7542;49.078;9.194;2023-04-03T01:57:22;23.50;49.30
14901;DHT22;7542;49.078;9.194;2023-04-03T01:58:24;23.50;49.30
14901;DHT22;7542;49.078;9.194;2023-04-03T01:59:26;23.50;49.30
14901;DHT22;7542;49.078;9.194;2023-04-03T02:00:28;23.50;49.30
14901;DHT22;7542;49.078;9.194;2023-04-03T02:01:30;23.50;49.30
14901;DHT22;7542;49.078;9.194;2023-04-03T02:02:32;23.50;49.30
14901;DHT22;7542;49.078;9.194;2023-04-03T02:03:34;23.50;49.30
14901;DHT22;7542;49.078;9.194;2023-04-03T02:04:36;23.50;49.20
14901;DHT22;7542;49.078;9.194;2023-04-03T02:05:38;23.50;49.20
14901;DHT22;7542;49.078;9.194;2023-04-03T02:06:40;23.50;49.20
14901;DHT22;7542;49.078;9.194;2023-04-03T02:07:41;23.50;49.20
14901;DHT22;7542;49.078;9.194;2023-04-03T02:08:43;23.50;49.20
14901;DHT22;7542;49.078;9.194;2023-04-03T02:09:45;23.70;49.30
14901;DHT22;7542;49.078;9.194;2023-04-03T02:10:48;23.50;49.20
14901;DHT22;7542;49.078;9.194;2023-04-03T02:11:51;23.50;49.20
14901;DHT22;7542;49.078;9.194;2023-04-03T02:12:53;23.50;49.20
14901;DHT22;7542;49.078;9.194;2023-04-03T02:13:55;23.50;49.20
14901;DHT22;7542;49.078;9.194;2023-04-03T02:14:57;23.50;49.30
14901;DHT22;7542;49.078;9.194;2023-04-03T02:15:59;23.50;49.30
14901;DHT22;7542;49.078;9.194;2023-04-03T02:17:07;23.50;49.30
14901;DHT22;7542;49.078;9.194;2023-04-03T02:18:10;23.50;49.20
14901;DHT22;7542;49.078;9.194;2023-04-03T02:19:12;23.50;49.20
14901;DHT22;7542;49.078;9.194;2023-04-03T02:20:14;23.50;49.20
14901;DHT22;7542;49.078;9.194;2023-04-03T02:21:16;23.50;49.20
14901;DHT22;7542;49.078;9.194;2023-04-03T02:22:18;23.50;49.20
14901;DHT22;7542;49.078;9.194;2023-04-03T02:23:20;23.50;49.20
14901;DHT22;7542;49.078;9.194;2023-04-03T02:24:22;23.60;49.20
14901;DHT22;7542;49.078;9.194;2023-04-03T02:25:24;23.50;49.20
14901;DHT22;7542;49.078;9.194;2023-04-03T02:26:26;23.50;49.20
14901;DHT22;7542;49.078;9.194;2023-04-03T02:27:28;24.20;49.40
14901;DHT22;7542;49.078;9.194;2023-04-03T02:28:30;23.50;49.20
14901;DHT22;7542;49.078;9.194;2023-04-03T02:29:31;23.50;49.20
14901;DHT22;7542;49.078;9.194;2023-04-03T02:30:33;23.50;49.20
14901;DHT22;7542;49.078;9.194;2023-04-03T02:31:36;23.40;49.20
14901;DHT22;7542;49.078;9.194;2023-04-03T02:32:38;23.50;49.20
14901;DHT22;7542;49.078;9.194;2023-04-03T02:33:40;23.50;49.20
14901;DHT22;7542;49.078;9.194;2023-04-03T02:34:42;23.50;49.20
14901;DHT22;7542;49.078;9.194;2023-04-03T02:35:44;23.50;49.20
14901;DHT22;7542;49.078;9.194;2023-04-03T02:36:54;23.50;49.20
14901;DHT22;7542;49.078;9.194;2023-04-03T02:37:56;23.40;49.10
14901;DHT22;7542;49.078;9.194;2023-04-03T02:38:58;23.50;49.20
14901;DHT22;7542;49.078;9.194;2023-04-03T02:40:00;23.40;49.10
14901;DHT22;7542;49.078;9.194;2023-04-03T02:41:04;23.40;49.10
14901;DHT22;7542;49.078;9.194;2023-04-03T02:42:10;23.50;49.20
14901;DHT22;7542;49.078;9.194;2023-04-03T02:43:12;23.50;49.20
14901;DHT22;7542;49.078;9.194;2023-04-03T02:44:14;23.40;49.20
14901;DHT22;7542;49.078;9.194;2023-04-03T02:45:16;23.50;49.20
14901;DHT22;7542;49.078;9.194;2023-04-03T02:46:17;23.40;49.10
14901;DHT22;7542;49.078;9.194;2023-04-03T02:47:19;23.50;49.20
14901;DHT22;7542;49.078;9.194;2023-04-03T02:48:22;23.50;49.20
14901;DHT22;7542;49.078;9.194;2023-04-03T02:49:24;23.50;49.20
14901;DHT22;7542;49.078;9.194;2023-04-03T02:50:26;23.40;49.10
14901;DHT22;7542;49.078;9.194;2023-04-03T02:51:28;23.40;49.10
14901;DHT22;7542;49.078;9.194;2023-04-03T02:52:30;23.40;49.10
14901;DHT22;7542;49.078;9.194;2023-04-03T02:53:31;23.40;49.00
14901;DHT22;7542;49.078;9.194;2023-04-03T02:54:34;23.40;49.10
14901;DHT22;7542;49.078;9.194;2023-04-03T02:55:35;23.40;49.10
14901;DHT22;7542;49.078;9.194;2023-04-03T02:56:37;23.40;49.10
14901;DHT22;7542;49.078;9.194;2023-04-03T02:57:39;23.40;49.10
14901;DHT22;7542;49.078;9.194;2023-04-03T02:58:41;23.40;49.10
14901;DHT22;7542;49.078;9.194;2023-04-03T02:59:43;23.40;49.10
14901;DHT22;7542;49.078;9.194;2023-04-03T03:00:45;23.40;49.10
14901;DHT22;7542;49.078;9.194;2023-04-03T03:01:47;23.40;49.10
14901;DHT22;7542;49.078;9.194;2023-04-03T03:02:49;23.40;49.10
14901;DHT22;7542;49.078;9.194;2023-04-03T03:03:51;23.40;49.10
14901;DHT22;7542;49.078;9.194;2023-04-03T03:04:53;23.40;49.10
14901;DHT22;7542;49.078;9.194;2023-04-03T03:06:06;23.40;49.10
14901;DHT22;7542;49.078;9.194;2023-04-03T03:07:09;23.30;49.00
14901;DHT22;7542;49.078;9.194;2023-04-03T03:08:11;23.40;49.10
14901;DHT22;7542;49.078;9.194;2023-04-03T03:09:13;23.40;49.10
14901;DHT22;7542;49.078;9.194;2023-04-03T03:10:15;23.30;49.10
14901;DHT22;7542;49.078;9.194;2023-04-03T03:11:17;23.40;49.10
14901;DHT22;7542;49.078;9.194;2023-04-03T03:12:19;23.20;49.00
14901;DHT22;7542;49.078;9.194;2023-04-03T03:13:23;23.40;49.10
14901;DHT22;7542;49.078;9.194;2023-04-03T03:14:25;23.40;49.10
14901;DHT22;7542;49.078;9.194;2023-04-03T03:15:27;23.30;49.10
14901;DHT22;7542;49.078;9.194;2023-04-03T03:16:28;23.40;49.20
14901;DHT22;7542;49.078;9.194;2023-04-03T03:17:31;23.40;49.10
14901;DHT22;7542;49.078;9.194;2023-04-03T03:18:33;23.40;49.10
14901;DHT22;7542;49.078;9.194;2023-04-03T03:19:35;23.30;49.10
14901;DHT22;7542;49.078;9.194;2023-04-03T03:20:37;23.30;49.10
14901;DHT22;7542;49.078;9.194;2023-04-03T03:21:39;23.40;49.10
14901;DHT22;7542;49.078;9.194;2023-04-03T03:22:41;23.40;49.00
14901;DHT22;7542;49.078;9.194;2023-04-03T03:23:43;23.30;49.00
14901;DHT22;7542;49.078;9.194;2023-04-03T03:24:44;23.30;49.10
14901;DHT22;7542;49.078;9.194;2023-04-03T03:25:46;23.40;49.10
14901;DHT22;7542;49.078;9.194;2023-04-03T03:26:48;23.30;49.10
14901;DHT22;7542;49.078;9.194;2023-04-03T03:27:50;23.30;49.10
14901;DHT22;7542;49.078;9.194;2023-04-03T03:28:52;23.30;49.10
14901;DHT22;7542;49.078;9.194;2023-04-03T03:29:54;23.30;49.10
14901;DHT22;7542;49.078;9.194;2023-04-03T03:30:56;23.30;49.20
14901;DHT22;7542;49.078;9.194;2023-04-03T03:31:59;23.30;49.10
14901;DHT22;7542;49.078;9.194;2023-04-03T03:33:01;23.30;49.20
14901;DHT22;7542;49.078;9.194;2023-04-03T03:34:03;23.30;49.20
14901;DHT22;7542;49.078;9.194;2023-04-03T03:35:05;23.30;49.20
14901;DHT22;7542;49.078;9.194;2023-04-03T03:36:07;23.30;49.10
14901;DHT22;7542;49.078;9.194;2023-04-03T03:37:09;23.30;49.20
14901;DHT22;7542;49.078;9.194;2023-04-03T03:38:11;23.30;49.10
14901;DHT22;7542;49.078;9.194;2023-04-03T03:39:13;23.30;49.20
14901;DHT22;7542;49.078;9.194;2023-04-03T03:40:15;23.30;49.10
14901;DHT22;7542;49.078;9.194;2023-04-03T03:41:18;23.30;49.10
14901;DHT22;7542;49.078;9.194;2023-04-03T03:42:20;23.30;49.00
14901;DHT22;7542;49.078;9.194;2023-04-03T03:43:22;23.30;49.10
14901;DHT22;7542;49.078;9.194;2023-04-03T03:44:24;23.30;49.10
14901;DHT22;7542;49.078;9.194;2023-04-03T03:45:26;23.30;49.00
14901;DHT22;7542;49.078;9.194;2023-04-03T03:46:28;23.30;49.00
14901;DHT22;7542;49.078;9.194;2023-04-03T03:47:30;23.30;49.00
14901;DHT22;7542;49.078;9.194;2023-04-03T03:48:32;23.20;48.90
14901;DHT22;7542;49.078;9.194;2023-04-03T03:49:34;23.30;49.00
14901;DHT22;7542;49.078;9.194;2023-04-03T03:50:36;24.10;49.30
14901;DHT22;7542;49.078;9.194;2023-04-03T03:51:39;23.30;49.00
14901;DHT22;7542;49.078;9.194;2023-04-03T03:52:41;23.30;49.10
14901;DHT22;7542;49.078;9.194;2023-04-03T03:53:43;23.20;48.90
14901;DHT22;7542;49.078;9.194;2023-04-03T03:54:45;23.30;49.00
14901;DHT22;7542;49.078;9.194;2023-04-03T03:55:47;23.20;48.90
14901;DHT22;7542;49.078;9.194;2023-04-03T03:56:49;23.20;49.00
14901;DHT22;7542;49.078;9.194;2023-04-03T03:57:51;23.20;49.00
14901;DHT22;7542;49.078;9.194;2023-04-03T03:58:53;23.20;49.00
14901;DHT22;7542;49.078;9.194;2023-04-03T03:59:55;23.30;49.10
14901;DHT22;7542;49.078;9.194;2023-04-03T04:00:57;23.20;49.00
14901;DHT22;7542;49.078;9.194;2023-04-03T04:02:02;23.20;49.00
14901;DHT22;7542;49.078;9.194;2023-04-03T04:03:04;23.20;49.00
14901;DHT22;7542;49.078;9.194;2023-04-03T04:04:06;23.30;49.00
14901;DHT22;7542;49.078;9.194;2023-04-03T04:05:08;26.00;50.10
14901;DHT22;7542;49.078;9.194;2023-04-03T04:06:10;23.30;49.00
14901;DHT22;7542;49.078;9.194;2023-04-03T04:07:12;23.30;48.90
14901;DHT22;7542;49.078;9.194;2023-04-03T04:08:14;23.30;48.90
14901;DHT22;7542;49.078;9.194;2023-04-03T04:09:16;23.30;48.90
14901;DHT22;7542;49.078;9.194;2023-04-03T04:10:18;23.30;48.90
14901;DHT22;7542;49.078;9.194;2023-04-03T04:11:20;23.30;48.90
14901;DHT22;7542;49.078;9.194;2023-04-03T04:12:23;23.30;48.80
14901;DHT22;7542;49.078;9.194;2023-04-03T04:13:25;23.30;48.80
14901;DHT22;7542;49.078;9.194;2023-04-03T04:14:27;23.30;48.80
14901;DHT22;7542;49.078;9.194;2023-04-03T04:15:28;23.30;48.80
14901;DHT22;7542;49.078;9.194;2023-04-03T04:16:30;23.40;48.80
14901;DHT22;7542;49.078;9.194;2023-04-03T04:17:32;23.40;48.80
14901;DHT22;7542;49.078;9.194;2023-04-03T04:18:36;23.40;48.80
14901;DHT22;7542;49.078;9.194;2023-04-03T04:19:37;23.40;48.80
14901;DHT22;7542;49.078;9.194;2023-04-03T04:20:39;23.40;48.70
14901;DHT22;7542;49.078;9.194;2023-04-03T04:21:41;23.40;48.80
14901;DHT22;7542;49.078;9.194;2023-04-03T04:22:43;23.40;48.70
14901;DHT22;7542;49.078;9.194;2023-04-03T04:23:45;23.40;48.80
14901;DHT22;7542;49.078;9.194;2023-04-03T04:24:47;23.50;48.90
14901;DHT22;7542;49.078;9.194;2023-04-03T04:25:49;23.30;48.70
14901;DHT22;7542;49.078;9.194;2023-04-03T04:26:51;23.40;48.70
14901;DHT22;7542;49.078;9.194;2023-04-03T04:27:53;23.20;48.60
14901;DHT22;7542;49.078;9.194;2023-04-03T04:28:55;23.50;48.70
14901;DHT22;7542;49.078;9.194;2023-04-03T04:29:57;23.50;48.80
14901;DHT22;7542;49.078;9.194;2023-04-03T04:31:00;23.50;48.80
14901;DHT22;7542;49.078;9.194;2023-04-03T04:32:03;23.40;48.70
14901;DHT22;7542;49.078;9.194;2023-04-03T04:33:05;23.50;48.70
14901;DHT22;7542;49.078;9.194;2023-04-03T04:34:08;23.50;48.70
14901;DHT22;7542;49.078;9.194;2023-04-03T04:35:10;23.40;48.70
14901;DHT22;7542;49.078;9.194;2023-04-03T04:36:12;23.50;48.70
14901;DHT22;7542;49.078;9.194;2023-04-03T04:37:14;23.50;48.70
14901;DHT22;7542;49.078;9.194;2023-04-03T04:38:15;23.50;48.70
14901;DHT22;7542;49.078;9.194;2023-04-03T04:39:17;23.50;48.70
14901;DHT22;7542;49.078;9.194;2023-04-03T04:40:19;23.50;48.80
14901;DHT22;7542;49.078;9.194;2023-04-03T04:41:22;23.50;48.80
14901;DHT22;7542;49.078;9.194;2023-04-03T04:42:24;23.50;48.70
14901;DHT22;7542;49.078;9.194;2023-04-03T04:43:26;23.50;48.80
14901;DHT22;7542;49.078;9.194;2023-04-03T04:44:28;23.50;48.80
14901;DHT22;7542;49.078;9.194;2023-04-03T04:45:30;23.50;48.70
14901;DHT22;7542;49.078;9.194;2023-04-03T04:46:32;23.50;48.70
14901;DHT22;7542;49.078;9.194;2023-04-03T04:47:34;23.50;48.70
14901;DHT22;7542;49.078;9.194;2023-04-03T04:48:36;23.50;48.60
14901;DHT22;7542;49.078;9.194;2023-04-03T04:49:38;23.50;48.60
14901;DHT22;7542;49.078;9.194;2023-04-03T04:50:40;23.50;48.60
14901;DHT22;7542;49.078;9.194;2023-04-03T04:51:41;23.50;48.60
14901;DHT22;7542;49.078;9.194;2023-04-03T04:52:52;23.50;48.60
14901;DHT22;7542;49.078;9.194;2023-04-03T04:53:54;23.50;48.70
14901;DHT22;7542;49.078;9.194;2023-04-03T04:54:56;23.60;48.70
14901;DHT22;7542;49.078;9.194;2023-04-03T04:55:58;23.50;48.70
14901;DHT22;7542;49.078;9.194;2023-04-03T04:57:00;23.50;48.70
14901;DHT22;7542;49.078;9.194;2023-04-03T04:58:02;23.40;48.60
14901;DHT22;7542;49.078;9.194;2023-04-03T04:59:04;23.50;48.70
14901;DHT22;7542;49.078;9.194;2023-04-03T05:00:06;23.60;48.70
14901;DHT22;7542;49.078;9.194;2023-04-03T05:01:10;23.50;48.70
14901;DHT22;7542;49.078;9.194;2023-04-03T05:02:12;23.50;48.70
14901;DHT22;7542;49.078;9.194;2023-04-03T05:03:14;23.50;48.70
14901;DHT22;7542;49.078;9.194;2023-04-03T05:04:16;23.50;48.70
14901;DHT22;7542;49.078;9.194;2023-04-03T05:05:18;23.50;48.70
14901;DHT22;7542;49.078;9.194;2023-04-03T05:06:20;23.60;48.60
14901;DHT22;7542;49.078;9.194;2023-04-03T05:07:22;23.50;48.60
14901;DHT22;7542;49.078;9.194;2023-04-03T05:08:25;23.50;48.60
14901;DHT22;7542;49.078;9.194;2023-04-03T05:09:27;23.50;48.60
14901;DHT22;7542;49.078;9.194;2023-04-03T05:10:29;23.50;48.60
14901;DHT22;7542;49.078;9.194;2023-04-03T05:11:31;23.60;48.60
14901;DHT22;7542;49.078;9.194;2023-04-03T05:12:33;23.50;48.70
14901;DHT22;7542;49.078;9.194;2023-04-03T05:13:36;23.50;48.70
14901;DHT22;7542;49.078;9.194;2023-04-03T05:14:37;23.50;48.70
14901;DHT22;7542;49.078;9.194;2023-04-03T05:15:39;23.50;48.70
14901;DHT22;7542;49.078;9.194;2023-04-03T05:16:42;23.60;48.70
14901;DHT22;7542;49.078;9.194;2023-04-03T05:17:43;23.40;48.60
14901;DHT22;7542;49.078;9.194;2023-04-03T05:18:46;23.50;48.70
14901;DHT22;7542;49.078;9.194;2023-04-03T05:19:47;23.60;48.60
14901;DHT22;7542;49.078;9.194;2023-04-03T05:20:50;23.50;48.70
14901;DHT22;7542;49.078;9.194;2023-04-03T05:21:52;23.50;48.70
14901;DHT22;7542;49.078;9.194;2023-04-03T05:22:54;23.50;48.70
14901;DHT22;7542;49.078;9.194;2023-04-03T05:23:56;23.50;48.70
14901;DHT22;7542;49.078;9.194;2023-04-03T05:24:57;23.50;48.70
14901;DHT22;7542;49.078;9.194;2023-04-03T05:25:59;23.50;48.80
14901;DHT22;7542;49.078;9.194;2023-04-03T05:27:01;23.30;48.70
14901;DHT22;7542;49.078;9.194;2023-04-03T05:28:03;23.40;48.70
14901;DHT22;7542;49.078;9.194;2023-04-03T05:29:06;23.40;48.70
14901;DHT22;7542;49.078;9.194;2023-04-03T05:30:09;23.40;48.70
14901;DHT22;7542;49.078;9.194;2023-04-03T05:31:11;23.40;48.70
14901;DHT22;7542;49.078;9.194;2023-04-03T05:32:14;23.30;48.80
14901;DHT22;7542;49.078;9.194;2023-04-03T05:33:16;23.30;48.70
14901;DHT22;7542;49.078;9.194;2023-04-03T05:34:18;23.30;48.90
14901;DHT22;7542;49.078;9.194;2023-04-03T05:35:20;24.70;49.80
14901;DHT22;7542;49.078;9.194;2023-04-03T05:36:22;23.30;49.20
14901;DHT22;7542;49.078;9.194;2023-04-03T05:37:24;23.40;49.20
14901;DHT22;7542;49.078;9.194;2023-04-03T05:38:26;23.40;49.20
14901;DHT22;7542;49.078;9.194;2023-04-03T05:39:28;23.40;49.10
14901;DHT22;7542;49.078;9.194;2023-04-03T05:40:30;23.40;49.10
14901;DHT22;7542;49.078;9.194;2023-04-03T05:41:32;23.40;49.20
14901;DHT22;7542;49.078;9.194;2023-04-03T05:42:34;25.40;49.80
14901;DHT22;7542;49.078;9.194;2023-04-03T05:43:36;23.50;49.20
14901;DHT22;7542;49.078;9.194;2023-04-03T05:44:40;23.50;49.10
14901;DHT22;7542;49.078;9.194;2023-04-03T05:45:43;23.30;49.00
14901;DHT22;7542;49.078;9.194;2023-04-03T05:46:47;23.50;49.10
14901;DHT22;7542;49.078;9.194;2023-04-03T05:47:49;23.50;49.00
14901;DHT22;7542;49.078;9.194;2023-04-03T05:48:51;23.50;49.00
14901;DHT22;7542;49.078;9.194;2023-04-03T05:49:53;23.50;49.00
14901;DHT22;7542;49.078;9.194;2023-04-03T05:50:55;23.40;48.90
14901;DHT22;7542;49.078;9.194;2023-04-03T05:51:57;23.50;49.00
14901;DHT22;7542;49.078;9.194;2023-04-03T05:53:00;23.40;48.90
14901;DHT22;7542;49.078;9.194;2023-04-03T05:54:29;23.50;48.90
14901;DHT22;7542;49.078;9.194;2023-04-03T05:55:31;23.50;48.90
14901;DHT22;7542;49.078;9.194;2023-04-03T05:56:33;23.50;48.90
14901;DHT22;7542;49.078;9.194;2023-04-03T05:57:35;23.50;48.90
14901;DHT22;7542;49.078;9.194;2023-04-03T05:58:37;23.50;48.80
14901;DHT22;7542;49.078;9.194;2023-04-03T05:59:40;23.50;48.80
14901;DHT22;7542;49.078;9.194;2023-04-03T06:00:41;23.50;48.80
14901;DHT22;7542;49.078;9.194;2023-04-03T06:01:44;23.50;48.80
14901;DHT22;7542;49.078;9.194;2023-04-03T06:02:46;23.50;48.70
14901;DHT22;7542;49.078;9.194;2023-04-03T06:03:48;23.50;48.80
14901;DHT22;7542;49.078;9.194;2023-04-03T06:04:50;23.50;48.80
14901;DHT22;7542;49.078;9.194;2023-04-03T06:05:52;23.50;48.80
14901;DHT22;7542;49.078;9.194;2023-04-03T06:06:56;23.50;48.80
14901;DHT22;7542;49.078;9.194;2023-04-03T06:07:59;23.50;48.80
14901;DHT22;7542;49.078;9.194;2023-04-03T06:09:01;23.50;48.70
14901;DHT22;7542;49.078;9.194;2023-04-03T06:10:05;23.50;48.70
14901;DHT22;7542;49.078;9.194;2023-04-03T06:11:08;23.60;48.70
14901;DHT22;7542;49.078;9.194;2023-04-03T06:12:10;23.50;48.70
14901;DHT22;7542;49.078;9.194;2023-04-03T06:13:12;23.50;48.70
14901;DHT22;7542;49.078;9.194;2023-04-03T06:14:15;23.50;48.70
14901;DHT22;7542;49.078;9.194;2023-04-03T06:15:17;23.50;48.70
14901;DHT22;7542;49.078;9.194;2023-04-03T06:16:19;23.50;48.80
14901;DHT22;7542;49.078;9.194;2023-04-03T06:17:21;23.50;48.70
14901;DHT22;7542;49.078;9.194;2023-04-03T06:18:24;23.50;48.80
14901;DHT22;7542;49.078;9.194;2023-04-03T06:19:26;23.60;48.80
14901;DHT22;7542;49.078;9.194;2023-04-03T06:20:27;23.50;48.80
14901;DHT22;7542;49.078;9.194;2023-04-03T06:21:29;23.50;48.90
14901;DHT22;7542;49.078;9.194;2023-04-03T06:22:32;23.50;48.90
14901;DHT22;7542;49.078;9.194;2023-04-03T06:23:33;23.50;48.90
14901;DHT22;7542;49.078;9.194;2023-04-03T06:24:36;23.50;48.90
14901;DHT22;7542;49.078;9.194;2023-04-03T06:25:38;23.50;48.90
14901;DHT22;7542;49.078;9.194;2023-04-03T06:26:40;23.60;49.00
14901;DHT22;7542;49.078;9.194;2023-04-03T06:27:42;23.60;48.90
14901;DHT22;7542;49.078;9.194;2023-04-03T06:28:44;24.90;49.60
14901;DHT22;7542;49.078;9.194;2023-04-03T06:29:45;23.60;49.00
14901;DHT22;7542;49.078;9.194;2023-04-03T06:30:47;26.50;50.00
14901;DHT22;7542;49.078;9.194;2023-04-03T06:31:50;23.60;49.00
14901;DHT22;7542;49.078;9.194;2023-04-03T06:32:52;23.50;49.10
14901;DHT22;7542;49.078;9.194;2023-04-03T06:33:54;23.60;49.10
14901;DHT22;7542;49.078;9.194;2023-04-03T06:34:57;23.60;49.10
14901;DHT22;7542;49.078;9.194;2023-04-03T06:36:00;23.50;49.10
14901;DHT22;7542;49.078;9.194;2023-04-03T06:37:04;23.50;49.10
14901;DHT22;7542;49.078;9.194;2023-04-03T06:38:06;23.50;49.10
14901;DHT22;7542;49.078;9.194;2023-04-03T06:39:19;23.60;49.10
14901;DHT22;7542;49.078;9.194;2023-04-03T06:40:24;23.60;49.20
14901;DHT22;7542;49.078;9.194;2023-04-03T06:41:27;23.60;49.10
14901;DHT22;7542;49.078;9.194;2023-04-03T06:42:29;23.60;49.10
14901;DHT22;7542;49.078;9.194;2023-04-03T06:43:31;23.60;49.20
14901;DHT22;7542;49.078;9.194;2023-04-03T06:44:35;23.60;49.10
14901;DHT22;7542;49.078;9.194;2023-04-03T06:45:37;23.60;49.10
14901;DHT22;7542;49.078;9.194;2023-04-03T06:46:39;23.60;49.10
14901;DHT22;7542;49.078;9.194;2023-04-03T06:47:41;23.60;49.10
14901;DHT22;7542;49.078;9.194;2023-04-03T06:48:44;23.50;49.10